Time;durP1;ratioP1;P1;durP2;ratioP2;P2;SDS_P1;SDS_P2;PMS_P1;PMS_P2;Temp;Humidity;BMP_temperature;BMP_pressure;BME280_temperature;BME280_humidity;BME280_pressure;Samples;Min_cycle;Max_cycle;Signal;HPM_P1;HPM_P2
2022/01/28 00:02:30;;;;;;;19.27;2.83;;;4.30;99.90;;;;;;5051773;28;20076;-59
2022/01/28 00:04:55;;;;;;;21.45;2.22;;;4.30;99.90;;;;;;5050936;28;20045;-59
2022/01/28 00:07:21;;;;;;;14.57;3.05;;;4.30;99.90;;;;;;5051497;28;20401;-58
2022/01/28 00:09:46;;;;;;;26.30;4.30;;;4.40;99.90;;;;;;5050929;28;20039;-57
2022/01/28 00:12:13;;;;;;;13.57;1.83;;;4.40;99.90;;;;;;5051293;28;20037;-58
2022/01/28 00:38:45;;;;;;;11.18;1.75;;;4.30;99.90;;;;;;5051753;28;20041;-58
2022/01/28 00:41:15;;;;;;;14.98;1.83;;;4.30;99.90;;;;;;5051931;28;20401;-57
2022/01/28 00:43:41;;;;;;;19.95;2.05;;;4.30;99.90;;;;;;5052287;28;20481;-59
2022/01/28 00:46:07;;;;;;;14.90;1.50;;;4.30;99.90;;;;;;5051528;28;20037;-58
2022/01/28 00:48:33;;;;;;;16.15;2.20;;;4.30;99.90;;;;;;5051905;28;20045;-58
2022/01/28 00:50:59;;;;;;;14.45;1.65;;;4.30;99.90;;;;;;5051507;28;20045;-58
2022/01/28 00:53:25;;;;;;;17.48;2.13;;;4.20;99.90;;;;;;5049834;28;20041;-56
2022/01/28 00:55:52;;;;;;;14.17;2.00;;;4.20;99.90;;;;;;5024051;28;20037;-58
2022/01/28 00:58:18;;;;;;;12.55;1.60;;;4.20;99.90;;;;;;5034142;28;20416;-59
2022/01/28 01:00:44;;;;;;;12.63;1.83;;;4.20;99.90;;;;;;5051619;28;20033;-57
2022/01/28 01:03:09;;;;;;;19.33;2.20;;;4.20;99.90;;;;;;5050263;28;20677;-58
2022/01/28 01:05:35;;;;;;;10.77;1.97;;;4.20;99.90;;;;;;5050398;28;20587;-59
2022/01/28 01:08:02;;;;;;;14.07;2.13;;;4.20;99.90;;;;;;5051605;28;20040;-55
2022/01/28 01:10:29;;;;;;;16.85;2.13;;;4.20;99.90;;;;;;5050743;28;20037;-59
2022/01/28 01:12:55;;;;;;;15.18;2.20;;;4.30;99.90;;;;;;5066567;28;20033;-59
2022/01/28 01:15:25;;;;;;;9.55;1.27;;;4.40;99.90;;;;;;5051302;28;20033;-59
2022/01/28 01:18:03;;;;;;;21.23;2.42;;;4.40;99.90;;;;;;5051249;28;20098;-59
2022/01/28 01:25:28;;;;;;;18.02;2.45;;;4.30;99.90;;;;;;5050968;28;20049;-59
2022/01/28 01:27:56;;;;;;;;;;;4.30;99.90;;;;;;5051895;28;20041;-59
2022/01/28 01:30:24;;;;;;;17.60;2.25;;;4.30;99.90;;;;;;5039043;28;20370;-60
2022/01/28 01:32:50;;;;;;;16.38;2.40;;;4.20;99.90;;;;;;5051047;28;20083;-59
2022/01/28 01:35:16;;;;;;;17.10;2.17;;;4.10;99.90;;;;;;5050628;28;20077;-60
2022/01/28 01:37:41;;;;;;;23.63;1.80;;;4.10;99.90;;;;;;5050593;28;20044;-60
2022/01/28 01:40:08;;;;;;;15.77;2.07;;;4.10;99.90;;;;;;5050964;28;20041;-59
2022/01/28 01:42:47;;;;;;;24.98;2.65;;;4.10;99.90;;;;;;5051505;28;20414;-60
2022/01/28 01:53:27;;;;;;;13.68;2.08;;;4.00;99.90;;;;;;5066156;28;20052;-60
2022/01/28 01:55:53;;;;;;;14.93;2.40;;;3.90;99.90;;;;;;5050007;28;20036;-60
2022/01/28 01:58:25;;;;;;;19.35;2.53;;;3.90;99.90;;;;;;5049834;28;20295;-59
2022/01/28 02:00:50;;;;;;;24.52;5.10;;;4.00;99.90;;;;;;5047484;28;20045;-60
2022/01/28 02:03:16;;;;;;;17.73;2.73;;;4.00;99.90;;;;;;5050750;28;20043;-60
2022/01/28 02:05:42;;;;;;;24.50;3.83;;;4.10;99.90;;;;;;5049333;28;20029;-60
2022/01/28 02:08:07;;;;;;;18.53;2.70;;;4.10;99.90;;;;;;5050831;28;20041;-59
2022/01/28 02:10:34;;;;;;;21.13;2.63;;;4.10;99.90;;;;;;5050410;28;20624;-60
2022/01/28 02:12:59;;;;;;;;;;;4.10;99.90;;;;;;5050079;28;20124;-59
2022/01/28 02:15:25;;;;;;;12.55;1.88;;;4.20;99.90;;;;;;5050071;28;20015;-58
2022/01/28 02:17:50;;;;;;;16.33;2.20;;;4.20;99.90;;;;;;5050460;28;20036;-57
2022/01/28 02:20:35;;;;;;;19.20;3.60;;;4.20;99.90;;;;;;5049994;28;20337;-55
2022/01/28 02:23:02;;;;;;;16.70;2.00;;;4.20;99.90;;;;;;5049796;28;20064;-58
2022/01/28 02:25:30;;;;;;;12.20;1.83;;;4.20;99.90;;;;;;5048214;28;20115;-59
2022/01/28 02:27:59;;;;;;;21.55;2.38;;;4.20;99.90;;;;;;5050291;28;20505;-56
2022/01/28 02:30:25;;;;;;;20.92;2.90;;;4.20;99.90;;;;;;5049967;28;20052;-59
2022/01/28 02:32:56;;;;;;;14.32;1.52;;;4.30;99.90;;;;;;5049193;28;20037;-60
2022/01/28 02:35:22;;;;;;;19.83;1.88;;;4.30;99.90;;;;;;5049926;28;20044;-58
2022/01/28 02:37:47;;;;;;;24.07;2.93;;;4.30;99.90;;;;;;5049644;28;20037;-59
2022/01/28 02:40:13;;;;;;;13.93;1.73;;;4.40;99.90;;;;;;5050001;28;20056;-60
2022/01/28 02:45:34;;;;;;;24.27;2.25;;;4.40;99.90;;;;;;5048882;28;20044;-60
2022/01/28 02:48:03;;;;;;;12.82;1.70;;;4.40;99.90;;;;;;5048886;28;20063;-60
2022/01/28 02:50:35;;;;;;;17.17;2.28;;;4.40;99.90;;;;;;5049340;28;20119;-58
2022/01/28 02:53:09;;;;;;;16.83;2.38;;;4.40;99.90;;;;;;5050134;28;20048;-59
2022/01/28 02:55:39;;;;;;;14.05;3.13;;;4.50;99.90;;;;;;5049352;28;20052;-59
2022/01/28 02:58:18;;;;;;;18.70;3.25;;;4.50;99.90;;;;;;5049644;28;20122;-60
2022/01/28 03:00:46;;;;;;;16.60;2.33;;;4.50;99.90;;;;;;5038428;28;20048;-55
2022/01/28 03:03:12;;;;;;;18.10;2.55;;;4.50;99.90;;;;;;5050440;28;20052;-59
2022/01/28 03:05:37;;;;;;;15.20;1.93;;;4.60;99.90;;;;;;5049372;28;20041;-60
2022/01/28 03:08:04;;;;;;;28.97;3.07;;;4.60;99.90;;;;;;5050061;28;20047;-59
2022/01/28 03:15:28;;;;;;;17.15;2.92;;;4.60;99.90;;;;;;5048445;28;20501;-60
2022/01/28 03:18:10;;;;;;;21.23;1.63;;;4.60;99.90;;;;;;5051957;28;20033;-58
2022/01/28 03:20:41;;;;;;;14.38;1.95;;;4.60;99.90;;;;;;5053706;28;20048;-60
2022/01/28 03:23:07;;;;;;;16.33;2.50;;;4.50;99.90;;;;;;5053098;28;20033;-60
2022/01/28 03:25:35;;;;;;;15.80;4.55;;;4.50;99.90;;;;;;5053158;28;20116;-59
2022/01/28 03:28:01;;;;;;;27.27;2.78;;;4.40;99.90;;;;;;5051601;28;20386;-59
2022/01/28 03:30:27;;;;;;;23.93;2.93;;;4.40;99.90;;;;;;5052779;28;20081;-57
2022/01/28 03:32:53;;;;;;;18.45;3.03;;;4.30;99.90;;;;;;5053601;28;20063;-60
2022/01/28 03:35:19;;;;;;;22.05;2.92;;;4.30;99.90;;;;;;5052642;28;20453;-59
2022/01/28 03:37:45;;;;;;;;;;;4.30;99.90;;;;;;5052984;28;20441;-59
2022/01/28 03:40:11;;;;;;;27.05;2.40;;;4.30;99.90;;;;;;5055595;28;19917;-61
2022/01/28 03:42:38;;;;;;;23.55;2.72;;;4.30;99.90;;;;;;5058741;28;20062;-60
2022/01/28 03:45:05;;;;;;;22.83;3.03;;;4.30;99.90;;;;;;5056167;28;20044;-59
2022/01/28 03:47:31;;;;;;;18.23;2.45;;;4.30;99.90;;;;;;5053129;28;20068;-59
2022/01/28 03:49:56;;;;;;;22.08;2.58;;;4.40;99.90;;;;;;5052376;28;20379;-59
2022/01/28 03:52:22;;;;;;;18.80;2.97;;;4.40;99.90;;;;;;5052743;28;20044;-59
2022/01/28 03:54:48;;;;;;;21.65;2.25;;;4.40;99.90;;;;;;5052704;28;20478;-59
2022/01/28 03:57:14;;;;;;;16.93;2.67;;;4.30;99.90;;;;;;5052624;28;20107;-59
2022/01/28 03:59:40;;;;;;;14.73;2.10;;;4.30;99.90;;;;;;5052572;28;20029;-58
2022/01/28 04:02:06;;;;;;;23.67;3.72;;;4.30;99.90;;;;;;5052492;28;20090;-59
2022/01/28 04:12:37;;;;;;;36.50;4.40;;;4.20;99.90;;;;;;5036576;28;20083;-59
2022/01/28 04:15:20;;;;;;;34.47;3.88;;;4.20;99.90;;;;;;5066890;28;20452;-60
2022/01/28 04:17:47;;;;;;;19.08;2.75;;;4.20;99.90;;;;;;5052463;28;20122;-60
2022/01/28 04:20:13;;;;;;;28.00;2.92;;;4.10;99.90;;;;;;5052763;28;20049;-60
2022/01/28 04:22:39;;;;;;;20.40;3.33;;;4.10;99.90;;;;;;5049563;28;20044;-59
2022/01/28 04:25:05;;;;;;;17.93;2.97;;;4.00;99.90;;;;;;5052096;28;20036;-60
2022/01/28 04:27:31;;;;;;;21.63;2.97;;;4.00;99.90;;;;;;5051645;28;20045;-60
2022/01/28 04:29:57;;;;;;;20.90;4.07;;;4.00;99.90;;;;;;5052125;28;20051;-60
2022/01/28 04:32:25;;;;;;;29.47;3.20;;;4.00;99.90;;;;;;5050691;28;20115;-59
2022/01/28 04:34:53;;;;;;;33.03;3.60;;;4.10;99.90;;;;;;5051646;28;20287;-60
2022/01/28 04:37:28;;;;;;;25.45;3.13;;;4.10;99.90;;;;;;5052261;28;20489;-60
2022/01/28 04:50:40;;;;;;;20.13;3.70;;;4.10;99.90;;;;;;5051865;28;20045;-60
2022/01/28 04:53:09;;;;;;;33.53;3.15;;;4.10;99.90;;;;;;5050093;28;20449;-60
2022/01/28 05:03:37;;;;;;;26.88;3.00;;;4.30;99.90;;;;;;5051657;28;20041;-60
2022/01/28 05:26:41;;;;;;;16.27;2.70;;;4.40;99.90;;;;;;5030699;28;20618;-55
2022/01/28 05:29:07;;;;;;;25.88;5.15;;;4.40;99.90;;;;;;5050345;28;20094;-59
2022/01/28 05:31:32;;;;;;;21.20;3.07;;;4.50;99.90;;;;;;5050990;28;20044;-58
2022/01/28 05:33:58;;;;;;;26.45;3.55;;;4.40;99.90;;;;;;5051237;28;20040;-60
2022/01/28 05:36:24;;;;;;;25.70;4.15;;;4.40;99.90;;;;;;5050453;28;20033;-59
2022/01/28 05:38:50;;;;;;;23.07;3.23;;;4.40;99.90;;;;;;5049987;28;20033;-58
2022/01/28 05:41:15;;;;;;;22.27;3.40;;;4.40;99.90;;;;;;5049615;28;20108;-59
2022/01/28 05:43:41;;;;;;;35.17;4.85;;;4.30;99.90;;;;;;5051212;28;20106;-59
2022/01/28 05:46:08;;;;;;;19.20;2.90;;;4.30;99.90;;;;;;5050585;28;20041;-59
2022/01/28 05:48:33;;;;;;;;;;;4.20;99.90;;;;;;5051379;28;20033;-58
2022/01/28 05:50:59;;;;;;;23.13;3.15;;;4.20;99.90;;;;;;5051180;28;19921;-58
2022/01/28 05:53:25;;;;;;;21.05;2.35;;;4.10;99.90;;;;;;5051436;28;20091;-58
2022/01/28 05:55:50;;;;;;;25.50;3.50;;;4.10;99.90;;;;;;5050277;28;20033;-57
2022/01/28 05:58:16;;;;;;;29.38;2.85;;;4.10;99.90;;;;;;5050826;28;20033;-60
2022/01/28 06:00:42;;;;;;;30.23;4.93;;;4.10;99.90;;;;;;5050270;28;20033;-59
2022/01/28 06:03:07;;;;;;;29.23;6.00;;;4.10;99.90;;;;;;5050857;28;20029;-60
2022/01/28 06:05:33;;;;;;;27.00;3.17;;;4.10;99.90;;;;;;5049911;28;20071;-58
2022/01/28 06:07:59;;;;;;;23.73;2.63;;;4.10;99.90;;;;;;5050580;28;20047;-57
2022/01/28 06:10:26;;;;;;;20.10;2.85;;;4.10;99.90;;;;;;5049668;28;20041;-60
2022/01/28 06:12:51;;;;;;;27.20;3.97;;;4.10;99.90;;;;;;5050185;28;20035;-58
2022/01/28 06:15:17;;;;;;;22.50;4.65;;;4.10;99.90;;;;;;5050453;28;20498;-57
2022/01/28 06:17:43;;;;;;;25.60;4.07;;;4.10;99.90;;;;;;5050196;28;20044;-58
2022/01/28 06:20:11;;;;;;;15.23;3.50;;;4.10;99.90;;;;;;5050323;28;20116;-60
2022/01/28 06:22:41;;;;;;;26.83;3.50;;;4.00;99.90;;;;;;5049949;28;20041;-59
2022/01/28 06:25:08;;;;;;;20.92;3.00;;;4.00;99.90;;;;;;5050039;28;20405;-60
2022/01/28 06:27:34;;;;;;;23.00;3.13;;;3.90;99.90;;;;;;5050252;28;20090;-59
2022/01/28 06:30:00;;;;;;;27.20;4.63;;;3.90;99.90;;;;;;5049476;28;20036;-58
2022/01/28 06:32:25;;;;;;;31.23;3.70;;;3.90;99.90;;;;;;5048061;28;20521;-60
2022/01/28 06:34:51;;;;;;;26.07;3.37;;;3.90;99.90;;;;;;5049584;28;20043;-60
2022/01/28 06:37:16;;;;;;;26.33;2.90;;;3.90;99.90;;;;;;5049931;28;20063;-59
2022/01/28 06:39:42;;;;;;;25.43;3.90;;;4.00;99.90;;;;;;5049832;28;20073;-59
2022/01/28 06:42:08;;;;;;;33.90;5.17;;;4.00;99.90;;;;;;5049519;28;20037;-60
2022/01/28 06:44:34;;;;;;;24.40;3.92;;;4.00;99.90;;;;;;5050010;28;20033;-58
2022/01/28 06:46:59;;;;;;;27.55;3.95;;;4.10;99.90;;;;;;5050282;28;20105;-59
2022/01/28 06:49:25;;;;;;;23.27;4.67;;;4.10;99.90;;;;;;5049814;28;20506;-59
2022/01/28 06:51:50;;;;;;;34.03;6.07;;;4.20;99.90;;;;;;5048982;28;20033;-60
2022/01/28 06:54:16;;;;;;;22.50;4.43;;;4.20;99.90;;;;;;5049815;28;20048;-60
2022/01/28 06:56:41;;;;;;;24.97;3.53;;;4.20;99.90;;;;;;5049794;28;20040;-60
2022/01/28 06:59:07;;;;;;;17.63;3.57;;;4.30;99.90;;;;;;5049762;28;20045;-58
2022/01/28 07:01:33;;;;;;;31.20;4.80;;;4.30;99.90;;;;;;5053727;28;20549;-59
2022/01/28 07:04:00;;;;;;;26.27;3.77;;;4.30;99.90;;;;;;5055780;28;20541;-59
2022/01/28 07:06:26;;;;;;;18.88;4.85;;;4.30;99.90;;;;;;5052345;28;20490;-59
2022/01/28 07:08:51;;;;;;;17.10;3.53;;;4.40;99.90;;;;;;5049480;28;20047;-59
2022/01/28 07:11:17;;;;;;;20.20;3.20;;;4.40;99.90;;;;;;5049957;28;20049;-59
2022/01/28 07:13:43;;;;;;;31.37;7.30;;;4.40;99.90;;;;;;5049787;28;20037;-59
2022/01/28 07:16:09;;;;;;;32.67;4.13;;;4.40;99.90;;;;;;5049180;28;20056;-59
2022/01/28 07:18:34;;;;;;;23.43;3.63;;;4.40;99.90;;;;;;5049806;28;20029;-56
2022/01/28 07:21:00;;;;;;;26.70;3.70;;;4.40;99.90;;;;;;5049558;28;20072;-60
2022/01/28 07:23:26;;;;;;;25.90;3.53;;;4.40;99.90;;;;;;5049340;28;20123;-60
2022/01/28 07:25:51;;;;;;;26.90;3.87;;;4.50;99.90;;;;;;5049244;28;20041;-60
2022/01/28 07:28:17;;;;;;;26.00;3.87;;;4.50;99.90;;;;;;5048366;28;20509;-60
2022/01/28 07:30:43;;;;;;;31.23;3.93;;;4.40;99.90;;;;;;5048589;28;20556;-60
2022/01/28 07:33:10;;;;;;;23.67;3.83;;;4.40;99.90;;;;;;5049361;28;20045;-63
2022/01/28 07:35:36;;;;;;;17.58;3.22;;;4.40;99.90;;;;;;5049529;28;20172;-60
2022/01/28 07:38:02;;;;;;;;;;;4.30;99.90;;;;;;5049459;28;20340;-60
2022/01/28 07:40:28;;;;;;;20.33;3.17;;;4.20;99.90;;;;;;5049586;28;20378;-60
2022/01/28 07:42:54;;;;;;;25.35;4.93;;;4.10;99.90;;;;;;5047399;28;20037;-60
2022/01/28 07:45:19;;;;;;;23.63;4.37;;;4.10;99.90;;;;;;5049504;28;20049;-58
2022/01/28 07:47:45;;;;;;;30.07;4.77;;;4.00;99.90;;;;;;5049212;28;20049;-58
2022/01/28 07:50:12;;;;;;;32.83;4.23;;;3.90;99.90;;;;;;5030698;28;20033;-59
2022/01/28 07:52:39;;;;;;;27.98;4.28;;;3.90;99.90;;;;;;5048791;28;20072;-57
2022/01/28 07:55:06;;;;;;;22.08;4.40;;;3.90;99.90;;;;;;5048736;28;20446;-57
2022/01/28 07:57:34;;;;;;;26.27;5.05;;;3.90;99.90;;;;;;5049356;28;20045;-58
2022/01/28 08:00:00;;;;;;;25.98;3.88;;;3.90;99.90;;;;;;5049888;28;20087;-59
2022/01/28 08:02:27;;;;;;;24.83;2.88;;;4.00;99.90;;;;;;5051198;28;20041;-57
2022/01/28 08:04:53;;;;;;;23.58;2.70;;;4.00;99.90;;;;;;5053691;28;20048;-58
2022/01/28 08:07:20;;;;;;;25.50;3.63;;;4.10;99.90;;;;;;5054475;28;20070;-58
2022/01/28 08:09:45;;;;;;;;;;;4.10;99.90;;;;;;5053392;28;20048;-59
2022/01/28 08:12:11;;;;;;;29.40;4.18;;;4.10;99.90;;;;;;5047536;28;19925;-58
2022/01/28 08:14:36;;;;;;;22.43;3.13;;;4.00;99.90;;;;;;5047498;28;20042;-58
2022/01/28 08:17:02;;;;;;;16.87;3.10;;;4.00;99.90;;;;;;5064045;28;20143;-57
2022/01/28 08:19:27;;;;;;;25.27;3.17;;;4.00;99.90;;;;;;5061389;28;20025;-58
2022/01/28 08:21:53;;;;;;;24.50;3.47;;;4.00;99.90;;;;;;5070318;28;20422;-56
2022/01/28 08:24:19;;;;;;;23.17;3.30;;;4.10;99.90;;;;;;5068165;28;20603;-57
2022/01/28 08:26:44;;;;;;;23.52;4.53;;;4.10;99.90;;;;;;5065149;28;20313;-58
2022/01/28 08:29:10;;;;;;;23.30;4.37;;;4.20;99.90;;;;;;5069185;28;20044;-58
2022/01/28 08:31:37;;;;;;;23.57;3.77;;;4.40;99.90;;;;;;5060339;28;20073;-56
2022/01/28 08:34:02;;;;;;;;;;;4.50;99.90;;;;;;5065448;28;20044;-58
2022/01/28 08:36:28;;;;;;;19.45;3.97;;;4.70;99.90;;;;;;5064547;28;19931;-59
2022/01/28 08:38:55;;;;;;;23.30;2.67;;;4.90;99.90;;;;;;5059860;28;20082;-56
2022/01/28 08:41:24;;;;;;;28.67;3.00;;;5.00;99.90;;;;;;5064332;28;20086;-58
2022/01/28 08:43:51;;;;;;;27.55;3.15;;;5.00;99.90;;;;;;5062498;28;20501;-57
2022/01/28 08:46:17;;;;;;;27.52;3.65;;;5.00;99.90;;;;;;5065035;28;20040;-57
2022/01/28 08:48:43;;;;;;;21.40;3.20;;;4.90;99.90;;;;;;5060223;28;20037;-56
2022/01/28 08:51:09;;;;;;;25.58;3.25;;;5.10;99.90;;;;;;5061999;28;20338;-57
2022/01/28 08:53:36;;;;;;;25.02;2.97;;;5.20;99.90;;;;;;5066824;28;20098;-57
2022/01/28 08:56:02;;;;;;;28.60;4.25;;;5.20;99.90;;;;;;5057356;28;20155;-58
2022/01/28 08:58:28;;;;;;;22.15;3.85;;;5.10;99.90;;;;;;5069638;28;20090;-58
2022/01/28 09:00:54;;;;;;;24.53;4.73;;;5.10;99.90;;;;;;5068819;28;20033;-58
2022/01/28 09:03:21;;;;;;;27.73;3.50;;;5.10;99.90;;;;;;5066390;28;20082;-59
2022/01/28 09:05:46;;;;;;;25.17;4.95;;;5.10;99.90;;;;;;5066243;28;20037;-58
2022/01/28 09:08:12;;;;;;;19.67;2.23;;;5.10;99.90;;;;;;5068465;28;20044;-56
2022/01/28 09:10:43;;;;;;;16.27;2.67;;;5.30;99.90;;;;;;5069681;28;20028;-58
2022/01/28 09:15:41;;;;;;;19.23;3.55;;;6.00;99.90;;;;;;5060063;28;20077;-58
2022/01/28 09:18:09;;;;;;;30.30;4.13;;;6.80;99.90;;;;;;5065497;28;20032;-58
2022/01/28 09:20:36;;;;;;;20.75;3.25;;;7.40;99.90;;;;;;5069608;28;20532;-55
2022/01/28 09:23:03;;;;;;;22.48;2.38;;;7.90;99.90;;;;;;5059559;28;20032;-58
2022/01/28 09:25:29;;;;;;;22.08;3.30;;;8.50;99.90;;;;;;5069263;28;20509;-57
2022/01/28 09:27:55;;;;;;;21.55;3.42;;;9.20;99.90;;;;;;5061920;28;20033;-57
2022/01/28 09:30:21;;;;;;;18.75;3.58;;;9.90;99.90;;;;;;5068920;28;20391;-56
2022/01/28 09:32:47;;;;;;;19.60;2.78;;;10.50;98.40;;;;;;5068447;28;20044;-55
2022/01/28 09:35:13;;;;;;;27.03;2.97;;;10.90;97.60;;;;;;5065895;28;20040;-58
2022/01/28 09:37:39;;;;;;;25.70;3.83;;;11.20;96.20;;;;;;5065536;28;20062;-57
2022/01/28 09:40:06;;;;;;;25.87;3.60;;;11.20;95.70;;;;;;5068899;28;20041;-57
2022/01/28 09:42:35;;;;;;;12.98;3.05;;;11.40;94.90;;;;;;5069553;28;20036;-57
2022/01/28 09:45:03;;;;;;;20.20;2.95;;;11.70;94.10;;;;;;5062301;28;20504;-55
2022/01/28 09:47:30;;;;;;;24.92;3.78;;;11.80;94.70;;;;;;5067873;28;20047;-57
2022/01/28 09:49:57;;;;;;;19.50;3.47;;;11.80;92.80;;;;;;5068920;28;20029;-56
2022/01/28 09:52:22;;;;;;;;;;;11.50;91.60;;;;;;5058545;28;20497;-55
2022/01/28 09:54:47;;;;;;;17.27;3.55;;;11.30;91.00;;;;;;5066310;28;19932;-54
2022/01/28 09:57:18;;;;;;;20.03;3.90;;;11.30;93.30;;;;;;5056390;28;20478;-58
2022/01/28 09:59:45;;;;;;;23.83;3.22;;;11.30;93.50;;;;;;5059923;28;20112;-58
2022/01/28 10:02:10;;;;;;;26.05;3.45;;;11.30;93.30;;;;;;5051225;28;20531;-57
2022/01/28 10:04:36;;;;;;;27.70;3.47;;;11.30;95.10;;;;;;5061082;28;20204;-58
2022/01/28 10:07:13;;;;;;;22.27;2.88;;;11.00;93.50;;;;;;5065342;28;20051;-57
2022/01/28 10:09:55;;;;;;;;;;;10.70;93.90;;;;;;5070065;28;20087;-58
2022/01/28 10:12:29;;;;;;;24.17;3.03;;;10.40;94.50;;;;;;5067488;28;19923;-58
2022/01/28 10:15:06;;;;;;;19.08;3.42;;;10.00;95.70;;;;;;5054818;28;20613;-58
2022/01/28 10:17:52;;;;;;;27.20;4.90;;;9.80;96.80;;;;;;5056836;28;20398;-56
2022/01/28 10:20:18;;;;;;;19.60;3.65;;;9.50;97.50;;;;;;5059333;28;20051;-57
2022/01/28 10:22:52;;;;;;;24.85;4.50;;;9.20;98.20;;;;;;5057316;28;20461;-58
2022/01/28 10:25:32;;;;;;;20.42;3.38;;;8.90;98.50;;;;;;5059836;28;20037;-56
2022/01/28 10:27:59;;;;;;;30.52;4.25;;;8.70;98.70;;;;;;5063405;28;20036;-58
2022/01/28 10:30:25;;;;;;;36.92;4.03;;;8.50;99.90;;;;;;5053129;28;20045;-58
2022/01/28 10:33:22;;;;;;;28.55;5.03;;;8.40;99.90;;;;;;5055944;28;20059;-57
2022/01/28 10:35:59;;;;;;;34.70;5.07;;;8.30;99.90;;;;;;5058147;28;20116;-58
2022/01/28 10:38:37;;;;;;;34.97;4.80;;;8.20;99.90;;;;;;5066667;28;20041;-58
2022/01/28 10:41:07;;;;;;;23.50;3.50;;;8.10;99.90;;;;;;5060061;28;20111;-57
2022/01/28 10:43:40;;;;;;;24.48;4.35;;;8.00;99.90;;;;;;5058025;28;20040;-58
2022/01/28 10:46:05;;;;;;;20.02;3.40;;;8.00;99.90;;;;;;5061201;28;20040;-57
2022/01/28 10:48:31;;;;;;;24.77;3.63;;;8.10;99.90;;;;;;5061936;28;20120;-57
2022/01/28 10:50:58;;;;;;;29.70;3.57;;;8.20;99.90;;;;;;5052000;28;20091;-60
2022/01/28 10:53:27;;;;;;;24.15;3.97;;;8.10;99.90;;;;;;5055775;28;20045;-59
2022/01/28 10:55:57;;;;;;;22.80;3.60;;;8.10;99.90;;;;;;5053030;28;20105;-59
2022/01/28 10:58:25;;;;;;;24.23;4.30;;;8.10;99.90;;;;;;5063843;28;20094;-58
2022/01/28 11:00:59;;;;;;;27.77;4.32;;;8.10;99.90;;;;;;5052520;28;20455;-59
2022/01/28 11:03:26;;;;;;;24.40;3.22;;;8.10;99.90;;;;;;5050377;28;20040;-59
2022/01/28 11:05:59;;;;;;;25.80;5.63;;;8.10;99.90;;;;;;5060206;28;20033;-60
2022/01/28 11:08:26;;;;;;;25.15;4.28;;;8.20;99.90;;;;;;5057099;28;20249;-60
2022/01/28 11:10:52;;;;;;;23.63;3.53;;;8.20;99.90;;;;;;5056646;28;20553;-60
2022/01/28 11:13:17;;;;;;;23.58;3.28;;;8.30;99.90;;;;;;5053947;28;20115;-60
2022/01/28 11:15:43;;;;;;;18.20;3.20;;;8.50;99.90;;;;;;5052512;28;20037;-60
2022/01/28 11:18:10;;;;;;;34.50;4.93;;;8.70;99.90;;;;;;5068508;28;20421;-59
2022/01/28 11:20:49;;;;;;;25.95;3.40;;;9.00;99.90;;;;;;5058092;28;20101;-60
2022/01/28 11:23:21;;;;;;;27.90;4.85;;;9.30;99.90;;;;;;5066223;28;20086;-60
2022/01/28 11:26:04;;;;;;;26.25;4.20;;;9.50;99.80;;;;;;5059461;28;20502;-59
2022/01/28 11:28:42;;;;;;;25.85;3.65;;;9.70;99.10;;;;;;5068072;28;20048;-58
2022/01/28 11:31:09;;;;;;;31.55;5.38;;;9.70;98.80;;;;;;5064684;28;20520;-60
2022/01/28 11:33:49;;;;;;;18.50;3.13;;;9.80;99.00;;;;;;5062029;28;20078;-59
2022/01/28 11:36:41;;;;;;;19.40;3.03;;;9.80;98.80;;;;;;5058321;28;20041;-58
2022/01/28 11:39:33;;;;;;;24.33;3.50;;;9.90;99.20;;;;;;5039354;28;20041;-57
2022/01/28 11:42:17;;;;;;;16.00;3.22;;;9.80;99.00;;;;;;5051787;28;20059;-59
2022/01/28 11:44:55;;;;;;;26.73;4.30;;;9.70;98.10;;;;;;5053584;28;20394;-60
2022/01/28 11:47:28;;;;;;;34.85;5.57;;;9.50;98.40;;;;;;5056629;28;20502;-57
2022/01/28 11:49:59;;;;;;;24.30;3.35;;;9.60;99.00;;;;;;5051675;28;20033;-59
2022/01/28 11:52:32;;;;;;;22.70;3.03;;;9.60;99.40;;;;;;5052354;28;20498;-58
2022/01/28 11:55:17;;;;;;;28.42;4.82;;;9.60;99.10;;;;;;5051395;28;20056;-56
2022/01/28 11:57:58;;;;;;;22.08;4.28;;;9.70;98.40;;;;;;5051500;28;20553;-57
2022/01/28 12:00:38;;;;;;;17.73;2.97;;;9.70;97.40;;;;;;5043243;28;20064;-58
2022/01/28 12:03:23;;;;;;;22.77;3.53;;;9.60;96.10;;;;;;5052129;28;20128;-56
2022/01/28 12:05:48;;;;;;;22.20;3.90;;;9.40;96.40;;;;;;5050096;28;20567;-58
2022/01/28 12:08:16;;;;;;;24.13;4.57;;;9.10;97.30;;;;;;5051786;28;20041;-58
2022/01/28 12:10:44;;;;;;;20.13;3.85;;;9.00;97.70;;;;;;5051552;28;20033;-57
2022/01/28 12:13:13;;;;;;;25.13;3.42;;;8.90;98.30;;;;;;5047444;28;20122;-58
2022/01/28 12:15:59;;;;;;;23.08;3.50;;;9.00;98.50;;;;;;5032199;28;20048;-59
2022/01/28 12:18:26;;;;;;;24.60;3.75;;;9.30;98.20;;;;;;5052150;28;20441;-59
2022/01/28 12:20:53;;;;;;;27.23;4.05;;;9.50;97.50;;;;;;5051113;28;20033;-59
2022/01/28 12:23:18;;;;;;;25.67;5.38;;;9.50;97.40;;;;;;5050579;28;20041;-58
2022/01/28 12:25:44;;;;;;;16.90;3.53;;;9.50;98.10;;;;;;5051816;28;20072;-59
2022/01/28 12:28:10;;;;;;;20.27;2.83;;;9.60;97.20;;;;;;5051773;28;20040;-58
2022/01/28 12:30:36;;;;;;;16.42;2.88;;;9.90;96.70;;;;;;5051424;28;20033;-59
2022/01/28 12:33:02;;;;;;;18.23;3.17;;;10.20;96.60;;;;;;5048967;28;20083;-59
2022/01/28 12:35:28;;;;;;;28.20;4.10;;;10.50;96.00;;;;;;5031901;28;20037;-57
2022/01/28 12:37:59;;;;;;;19.87;3.27;;;10.70;93.50;;;;;;5050982;28;20065;-59
2022/01/28 12:40:35;;;;;;;21.38;3.50;;;10.80;94.50;;;;;;5052155;28;20486;-59
2022/01/28 12:43:01;;;;;;;26.27;4.15;;;10.80;93.40;;;;;;5050852;28;20037;-59
2022/01/28 12:45:27;;;;;;;;;;;10.80;93.60;;;;;;5052336;28;20107;-59
2022/01/28 12:47:53;;;;;;;24.02;2.75;;;10.80;93.50;;;;;;5050763;28;19917;-60
2022/01/28 12:50:19;;;;;;;28.58;2.78;;;10.70;92.90;;;;;;5049461;28;20036;-58
2022/01/28 12:52:46;;;;;;;;;;;10.80;93.70;;;;;;5052897;28;20045;-58
2022/01/28 12:55:12;;;;;;;21.45;3.28;;;10.70;91.00;;;;;;5050628;28;19928;-58
2022/01/28 12:57:45;;;;;;;;;;;10.70;92.90;;;;;;5049642;28;20112;-58
2022/01/28 13:00:11;;;;;;;17.58;3.60;;;11.00;90.80;;;;;;5051927;28;19959;-59
2022/01/28 13:02:37;;;;;;;;;;;11.40;92.70;;;;;;5053214;28;20033;-60
2022/01/28 13:10:33;;;;;;;14.02;2.15;;;10.80;88.60;;;;;;5051001;28;20049;-59
2022/01/28 13:13:08;;;;;;;16.85;2.65;;;10.30;88.50;;;;;;5049971;28;20135;-59
2022/01/28 13:15:34;;;;;;;13.07;2.08;;;9.90;91.20;;;;;;5050157;28;20048;-59
2022/01/28 13:18:02;;;;;;;23.98;3.28;;;9.70;92.50;;;;;;5050894;28;20037;-59
2022/01/28 13:20:33;;;;;;;27.38;4.32;;;9.50;93.10;;;;;;5051088;28;20056;-58
2022/01/28 13:22:59;;;;;;;21.20;2.75;;;9.40;93.10;;;;;;5051287;28;20048;-61
2022/01/28 13:25:26;;;;;;;20.97;3.50;;;9.50;94.20;;;;;;5050791;28;20033;-64
2022/01/28 13:27:59;;;;;;;16.83;3.40;;;9.50;94.80;;;;;;5050492;28;20064;-64
2022/01/28 13:30:27;;;;;;;18.25;2.58;;;9.90;95.40;;;;;;5050169;28;20037;-63
2022/01/28 13:33:00;;;;;;;21.92;3.10;;;10.40;95.30;;;;;;5050925;28;20029;-63
2022/01/28 13:35:25;;;;;;;16.52;2.75;;;10.60;93.10;;;;;;5050362;28;20041;-64
2022/01/28 13:37:53;;;;;;;28.23;4.38;;;10.50;93.10;;;;;;5050773;28;20036;-64
2022/01/28 13:40:21;;;;;;;19.20;2.30;;;10.40;92.20;;;;;;5049623;28;20041;-63
2022/01/28 13:43:06;;;;;;;19.20;3.25;;;10.10;92.80;;;;;;5062343;28;20044;-64
2022/01/28 13:45:53;;;;;;;20.00;3.10;;;9.80;92.70;;;;;;5050588;28;20033;-64
2022/01/28 13:48:36;;;;;;;27.15;3.72;;;9.50;95.00;;;;;;5043771;28;20041;-64
2022/01/28 13:51:16;;;;;;;25.70;4.38;;;9.00;94.80;;;;;;5050206;28;20572;-64
2022/01/28 13:56:42;;;;;;;23.08;3.72;;;8.40;96.20;;;;;;5049825;28;20060;-64
2022/01/28 13:59:16;;;;;;;26.13;4.57;;;8.30;97.70;;;;;;5049619;28;20045;-64
2022/01/28 14:01:49;;;;;;;21.17;3.97;;;8.10;98.50;;;;;;5050118;28;20041;-64
2022/01/28 14:04:35;;;;;;;26.77;3.80;;;8.00;99.30;;;;;;5050853;28;20040;-64
2022/01/28 14:07:07;;;;;;;18.23;3.58;;;7.90;99.90;;;;;;5049711;28;20041;-64
2022/01/28 14:09:50;;;;;;;24.23;4.32;;;7.90;99.90;;;;;;5047954;28;20041;-64
2022/01/28 14:12:47;;;;;;;20.08;2.60;;;8.00;99.90;;;;;;5050216;28;20044;-64
2022/01/28 14:17:52;;;;;;;16.92;3.17;;;7.90;99.90;;;;;;5047612;28;20098;-63
2022/01/28 14:20:18;;;;;;;19.85;3.50;;;7.90;99.90;;;;;;5050191;28;20507;-64
2022/01/28 14:22:43;;;;;;;22.57;4.60;;;7.90;99.90;;;;;;5049876;28;20033;-64
2022/01/28 14:25:09;;;;;;;14.20;2.60;;;7.90;99.90;;;;;;5050071;28;20041;-64
2022/01/28 14:27:58;;;;;;;22.05;3.28;;;7.90;99.90;;;;;;5049995;28;20363;-64
2022/01/28 14:30:34;;;;;;;21.65;3.47;;;7.90;99.90;;;;;;5048252;28;20041;-63
2022/01/28 14:33:00;;;;;;;16.77;3.05;;;7.90;99.90;;;;;;5049976;28;20386;-64
2022/01/28 14:35:25;;;;;;;21.53;2.60;;;7.90;99.90;;;;;;5049257;28;20032;-64
2022/01/28 14:37:51;;;;;;;21.17;2.70;;;7.90;99.90;;;;;;5048128;28;20086;-64
2022/01/28 14:40:17;;;;;;;17.02;2.50;;;8.10;99.90;;;;;;5049390;28;20025;-63
2022/01/28 14:42:42;;;;;;;20.37;3.23;;;8.30;99.90;;;;;;5049500;28;20041;-64
2022/01/28 14:45:09;;;;;;;16.88;2.55;;;8.60;99.90;;;;;;5049013;28;20159;-64